»·PEaware :: N522PM KCRQ-KPSP

N522PM :: KCRQ-KPSP

FLIGHT INFORMATION

Flight Status: Arrived
Operator: Privately registered:
United States
More flights under this callsign
Pilot: Bruce B. (6887)
Aircraft: BEECH AIRCRAFT BONANZA
(BE36)
More flights by this aircraft type
Origin: KCRQ McClellan-Palomar
United States
Destination: KPSP Palm Springs Intl
United States
More flights between these airports :: More routes between these airports
Route: DIRECT
File this flight plan on PilotEdge
Remarks:
Altitude:
(Current/Filed)
9,500ft
Speed:
(Current/Filed)
160kts
Departed: 28-Dec-19 05:22 PM
Arrived: 28-Dec-19 06:03 PM
Distance/Time
Traveled:
57nm/0:41
Distance/Time
To Go:
Arrived

Flight Plot

Page will automatically refresh every two minutes.


Map Options




Map Legend


Flown Route
Filed Route
Departure Airport
Arrival Airport
Navaid (VOR, NDB)
Fix

Horizontal Profiles

Position Reports

Time Latitude Longitude Heading Altitude Ground
Speed
28-Dec-19 17:13 33.126315 -117.283204 27 334ft 0kts
28-Dec-19 17:14 33.126315 -117.283204 27 334ft 0kts
28-Dec-19 17:15 33.126315 -117.283203 27 334ft 0kts
28-Dec-19 17:16 33.126316 -117.283203 27 334ft 0kts
28-Dec-19 17:17 33.126316 -117.283203 27 334ft 0kts
28-Dec-19 17:18 33.126817 -117.283173 2 334ft 15kts
28-Dec-19 17:19 33.128466 -117.273864 84 334ft 27kts
28-Dec-19 17:20 33.128627 -117.272866 39 334ft 0kts
28-Dec-19 17:21 33.128079 -117.280959 259 453ft 88kts
28-Dec-19 17:22 33.124369 -117.312617 259 1861ft 97kts
28-Dec-19 17:23 33.122471 -117.343865 308 3134ft 103kts
28-Dec-19 17:24 33.140666 -117.327737 70 4391ft 103kts
28-Dec-19 17:25 33.147651 -117.294633 67 5534ft 101kts
28-Dec-19 17:26 33.157507 -117.262570 65 6563ft 104kts
28-Dec-19 17:27 33.166277 -117.229369 66 7540ft 104kts
28-Dec-19 17:28 33.175285 -117.194226 66 8303ft 116kts
28-Dec-19 17:29 33.185003 -117.156097 66 9022ft 122kts
28-Dec-19 17:30 33.195245 -117.116100 65 9517ft 138kts
28-Dec-19 17:31 33.207498 -117.068001 66 9540ft 159kts
28-Dec-19 17:32 33.220563 -117.016552 66 9528ft 164kts
28-Dec-19 17:33 33.233921 -116.964114 67 9529ft 165kts
28-Dec-19 17:34 33.247383 -116.911336 67 9530ft 165kts
28-Dec-19 17:35 33.260756 -116.858496 66 9529ft 166kts
28-Dec-19 17:36 33.274155 -116.805655 66 9530ft 166kts
28-Dec-19 17:37 33.287612 -116.752574 66 9525ft 167kts
28-Dec-19 17:38 33.301023 -116.699343 66 9530ft 167kts
28-Dec-19 17:39 33.314432 -116.646182 66 9529ft 167kts
28-Dec-19 17:40 33.327839 -116.592776 66 9527ft 168kts
28-Dec-19 17:41 33.341313 -116.539095 66 9496ft 169kts
28-Dec-19 17:42 33.354825 -116.485099 66 9477ft 169kts
28-Dec-19 17:44 33.370662 -116.432952 56 9487ft 165kts
28-Dec-19 17:45 33.395638 -116.388094 42 9490ft 159kts
28-Dec-19 17:46 33.425314 -116.347244 42 8991ft 164kts
28-Dec-19 17:47 33.457169 -116.308349 37 8342ft 163kts
28-Dec-19 17:48 33.489380 -116.272687 36 7711ft 161kts
28-Dec-19 17:49 33.524935 -116.243066 29 7178ft 156kts
28-Dec-19 17:50 33.561562 -116.213632 30 6397ft 161kts
28-Dec-19 17:51 33.601622 -116.192136 2 5417ft 158kts
28-Dec-19 17:52 33.645046 -116.194314 341 4431ft 156kts
28-Dec-19 17:53 33.671019 -116.231596 299 3759ft 137kts
28-Dec-19 17:54 33.688145 -116.270463 299 3204ft 127kts
28-Dec-19 17:55 33.704527 -116.308269 298 2993ft 117kts
28-Dec-19 17:56 33.719097 -116.343726 299 2956ft 122kts
28-Dec-19 17:57 33.733086 -116.379418 297 2968ft 119kts
28-Dec-19 17:58 33.749755 -116.412470 303 2756ft 118kts
28-Dec-19 17:59 33.764931 -116.442124 304 2286ft 105kts
28-Dec-19 18:00 33.784182 -116.467670 321 1583ft 101kts
28-Dec-19 18:00 33.801370 -116.482731 323 1040ft 77kts
28-Dec-19 18:02 33.820699 -116.499844 324 554ft 64kts
28-Dec-19 18:03 33.828705 -116.507734 286 481ft 10kts
28-Dec-19 18:03 33.828664 -116.508123 242 481ft 0kts

Navigation Log

Ident Type
Flight plan parsing failed, navigation log unavailable